Time;durP1;ratioP1;P1;durP2;ratioP2;P2;SDS_P1;SDS_P2;PMS_P1;PMS_P2;Temp;Humidity;BMP_temperature;BMP_pressure;BME280_temperature;BME280_humidity;BME280_pressure;Samples;Min_cycle;Max_cycle;Signal;HPM_P1;HPM_P2
2022/01/26 00:00:30;;;;;;;32.08;15.75;;;-0.50;98.00;;;;;;5037622;28;20108;-67
2022/01/26 00:05:52;;;;;;;27.38;13.02;;;-0.60;98.00;;;;;;5039676;28;20453;-68
2022/01/26 00:08:24;;;;;;;28.48;14.75;;;-0.70;98.00;;;;;;5056152;28;20334;-68
2022/01/26 00:10:50;;;;;;;24.77;12.63;;;-0.70;98.00;;;;;;5054052;28;20486;-68
2022/01/26 00:13:15;;;;;;;25.55;13.05;;;-0.70;98.00;;;;;;5046008;28;20091;-68
2022/01/26 00:15:43;;;;;;;25.85;13.32;;;-0.80;98.00;;;;;;5076804;28;20028;-70
2022/01/26 00:18:09;;;;;;;27.33;12.68;;;-0.90;98.00;;;;;;5057239;28;20039;-67
2022/01/26 00:20:50;;;;;;;23.95;12.40;;;-1.00;98.00;;;;;;5044597;28;20037;-69
2022/01/26 00:26:08;;;;;;;39.63;20.70;;;-1.30;98.00;;;;;;5037575;28;20048;-68
2022/01/26 00:39:29;;;;;;;28.00;15.13;;;-2.20;98.00;;;;;;5050448;28;20119;-67
2022/01/26 00:41:57;;;;;;;30.00;15.57;;;-2.20;98.00;;;;;;5045232;28;20115;-68
2022/01/26 00:44:34;;;;;;;31.45;15.45;;;-2.20;98.00;;;;;;5060576;28;20033;-70
2022/01/26 00:47:00;;;;;;;31.42;16.00;;;-2.30;98.00;;;;;;5040481;28;20024;-67
2022/01/26 00:49:26;;;;;;;35.22;16.88;;;-2.40;98.00;;;;;;5052985;28;20025;-68
2022/01/26 00:51:53;;;;;;;30.65;16.20;;;-2.40;98.00;;;;;;5046046;28;20029;-68
2022/01/26 00:54:19;;;;;;;34.15;16.58;;;-2.50;98.00;;;;;;5047412;28;20326;-68
2022/01/26 00:56:48;;;;;;;35.50;17.33;;;-2.50;97.80;;;;;;5049696;28;20055;-68
2022/01/26 00:59:13;;;;;;;33.08;16.17;;;-2.50;97.40;;;;;;5044046;28;20392;-68
2022/01/26 01:01:39;;;;;;;33.35;17.52;;;-2.50;97.50;;;;;;5044645;28;20107;-68
2022/01/26 01:04:05;;;;;;;38.47;17.08;;;-2.60;97.70;;;;;;5035284;28;20067;-68
2022/01/26 01:06:39;;;;;;;30.58;17.02;;;-2.70;97.20;;;;;;5075958;28;20047;-68
2022/01/26 01:09:05;;;;;;;32.40;18.13;;;-2.60;96.70;;;;;;5042697;28;20029;-68
2022/01/26 01:11:31;;;;;;;28.92;16.35;;;-2.50;96.30;;;;;;5045454;28;20034;-67
2022/01/26 01:13:57;;;;;;;32.28;17.77;;;-2.30;96.10;;;;;;5046313;28;20021;-67
2022/01/26 01:16:25;;;;;;;32.50;17.40;;;-2.10;95.50;;;;;;5038037;28;20053;-67
2022/01/26 01:19:06;;;;;;;34.60;18.08;;;-2.00;95.60;;;;;;5042063;28;20411;-67
2022/01/26 01:29:40;;;;;;;28.45;14.98;;;-2.20;96.80;;;;;;5040402;28;20025;-68
2022/01/26 01:32:12;;;;;;;30.40;15.02;;;-2.00;96.90;;;;;;5035786;28;20100;-68
2022/01/26 01:34:39;;;;;;;32.50;15.37;;;-1.90;97.50;;;;;;5041965;28;20010;-68
2022/01/26 01:37:08;;;;;;;31.42;14.05;;;-1.90;97.80;;;;;;5041140;28;20021;-68
2022/01/26 01:39:35;;;;;;;26.17;14.52;;;-1.80;97.50;;;;;;5039513;28;20037;-67
2022/01/26 01:42:02;;;;;;;25.08;13.68;;;-1.70;98.00;;;;;;5039167;28;20022;-68
2022/01/26 01:44:30;;;;;;;29.40;14.38;;;-1.70;98.00;;;;;;5046144;28;20350;-68
2022/01/26 01:46:57;;;;;;;28.10;15.45;;;-1.60;98.00;;;;;;5047370;28;20044;-68
2022/01/26 01:49:23;;;;;;;27.00;13.63;;;-1.50;98.00;;;;;;5046450;28;20063;-68
2022/01/26 01:51:53;;;;;;;30.20;14.70;;;-1.50;98.00;;;;;;5048834;28;20021;-68
2022/01/26 01:54:20;;;;;;;25.95;13.80;;;-1.70;98.00;;;;;;5040677;28;20048;-68
2022/01/26 01:56:52;;;;;;;28.48;13.55;;;-1.80;98.00;;;;;;5038266;28;20025;-68
2022/01/26 01:59:18;;;;;;;28.10;14.00;;;-1.90;98.00;;;;;;5041613;28;20128;-67
2022/01/26 02:01:44;;;;;;;26.92;14.05;;;-2.00;98.00;;;;;;5045676;28;20120;-68
2022/01/26 02:04:09;;;;;;;24.42;12.38;;;-1.90;98.00;;;;;;5042209;28;20036;-68
2022/01/26 02:06:35;;;;;;;21.65;11.15;;;-2.00;98.00;;;;;;5049549;28;20032;-68
2022/01/26 02:09:02;;;;;;;20.95;11.23;;;-2.20;98.00;;;;;;5043523;28;20032;-67
2022/01/26 02:11:27;;;;;;;25.63;12.35;;;-2.20;98.00;;;;;;5043200;28;20033;-67
2022/01/26 02:14:15;;;;;;;28.55;13.55;;;-2.10;98.00;;;;;;5045136;28;20029;-67
2022/01/26 02:17:01;;;;;;;24.85;12.88;;;-2.10;97.80;;;;;;5046677;28;20037;-68
2022/01/26 02:55:23;;;;;;;45.58;19.45;;;-2.40;98.00;;;;;;5043764;28;20025;-67
2022/01/26 03:00:23;;;;;;;48.22;19.95;;;-2.60;98.00;;;;;;5045951;28;20501;-68
2022/01/26 03:02:59;;;;;;;33.97;14.88;;;-2.70;97.90;;;;;;5041509;28;20299;-67
2022/01/26 03:05:31;;;;;;;26.88;13.32;;;-2.70;98.00;;;;;;5040136;28;20017;-67
2022/01/26 03:08:04;;;;;;;28.45;14.10;;;-2.70;98.00;;;;;;5051182;28;20104;-67
2022/01/26 03:10:43;;;;;;;31.20;14.45;;;-2.80;98.00;;;;;;5051764;28;20057;-67
2022/01/26 03:13:15;;;;;;;35.55;16.65;;;-2.80;98.00;;;;;;5041355;28;20060;-67
2022/01/26 03:15:46;;;;;;;99.28;32.35;;;-2.80;97.90;;;;;;5042685;28;20051;-67
2022/01/26 03:20:42;;;;;;;74.57;27.90;;;-2.90;98.00;;;;;;5049292;28;20383;-66
2022/01/26 03:29:53;;;;;;;50.67;22.60;;;-2.90;98.00;;;;;;5044396;28;20041;-65
2022/01/26 03:34:15;;;;;;;31.55;15.00;;;-3.20;97.50;;;;;;5048984;28;20365;-66
2022/01/26 03:36:51;;;;;;;28.77;14.55;;;-3.30;98.00;;;;;;5056989;28;20033;-67
2022/01/26 03:39:20;;;;;;;37.30;16.65;;;-3.30;97.10;;;;;;5045007;28;20037;-68
2022/01/26 03:41:49;;;;;;;31.23;14.77;;;-3.20;96.30;;;;;;5043624;28;20025;-67
2022/01/26 03:44:16;;;;;;;28.45;13.57;;;-3.00;96.50;;;;;;5050000;28;20075;-68
2022/01/26 03:46:43;;;;;;;34.35;15.85;;;-2.90;96.40;;;;;;5038311;28;20148;-68
2022/01/26 03:49:11;;;;;;;27.52;14.05;;;-2.90;97.20;;;;;;5041184;28;20087;-68
2022/01/26 03:51:37;;;;;;;30.13;14.80;;;-3.10;97.30;;;;;;5045567;28;20045;-68
2022/01/26 03:54:04;;;;;;;31.00;15.40;;;-3.00;96.10;;;;;;5045851;28;20041;-67
2022/01/26 03:56:30;;;;;;;31.60;15.63;;;-2.90;96.20;;;;;;5038095;28;20048;-67
2022/01/26 03:58:56;;;;;;;28.52;14.20;;;-3.00;97.10;;;;;;5042439;28;20136;-67
2022/01/26 04:01:24;;;;;;;27.27;13.60;;;-3.00;96.70;;;;;;5047615;28;20086;-67
2022/01/26 04:03:50;;;;;;;28.42;13.35;;;-3.10;97.00;;;;;;5043793;28;20326;-66
2022/01/26 04:06:17;;;;;;;28.27;13.07;;;-3.20;97.10;;;;;;5042710;28;20026;-67
2022/01/26 04:08:44;;;;;;;21.58;12.25;;;-3.20;97.30;;;;;;5050443;28;20406;-67
2022/01/26 04:13:57;;;;;;;28.42;13.52;;;-3.40;97.20;;;;;;5047499;28;20076;-67
2022/01/26 04:16:23;;;;;;;30.95;14.02;;;-3.50;97.50;;;;;;5051509;28;20087;-67
2022/01/26 04:18:49;;;;;;;26.80;13.20;;;-3.60;97.30;;;;;;5042052;28;20041;-67
2022/01/26 04:23:54;;;;;;;27.42;13.75;;;-4.00;96.90;;;;;;5042630;28;20079;-67
2022/01/26 04:26:27;;;;;;;;;;;-3.90;95.50;;;;;;5041733;28;20029;-68
2022/01/26 04:29:01;;;;;;;25.67;12.68;;;-3.80;97.30;;;;;;5054168;28;19919;-67
2022/01/26 04:31:27;;;;;;;25.80;11.85;;;-4.00;96.90;;;;;;5038880;28;20037;-67
2022/01/26 04:33:53;;;;;;;26.48;11.95;;;-4.10;97.30;;;;;;5037345;28;20083;-67
2022/01/26 04:36:32;;;;;;;30.63;14.82;;;-4.10;96.20;;;;;;5036509;28;20029;-67
2022/01/26 04:39:02;;;;;;;30.67;15.10;;;-4.10;96.50;;;;;;5040322;28;20029;-67
2022/01/26 04:41:36;;;;;;;39.05;24.10;;;-4.10;96.60;;;;;;5046518;28;20035;-67
2022/01/26 04:44:09;;;;;;;54.15;29.15;;;-4.10;95.70;;;;;;5039674;28;20033;-68
2022/01/26 04:46:35;;;;;;;44.92;22.15;;;-3.90;94.90;;;;;;5041255;28;20034;-67
2022/01/26 04:49:01;;;;;;;45.28;21.30;;;-3.80;95.10;;;;;;5059609;28;20024;-67
2022/01/26 04:51:27;;;;;;;35.60;18.08;;;-3.70;95.60;;;;;;5059293;28;20021;-68
2022/01/26 04:53:52;;;;;;;37.42;16.85;;;-3.80;96.00;;;;;;5043157;28;20152;-68
2022/01/26 04:56:18;;;;;;;31.73;15.13;;;-3.80;95.80;;;;;;5045437;28;20426;-68
2022/01/26 04:58:44;;;;;;;36.22;17.25;;;-3.90;95.50;;;;;;5047436;28;20048;-68
2022/01/26 05:01:09;;;;;;;37.38;17.13;;;-4.00;95.60;;;;;;5044525;28;20493;-68
2022/01/26 05:03:35;;;;;;;35.70;19.10;;;-4.10;96.20;;;;;;5048445;28;20357;-67
2022/01/26 05:06:01;;;;;;;37.70;20.52;;;-4.20;96.50;;;;;;5039329;28;20029;-67
2022/01/26 05:08:26;;;;;;;31.45;17.60;;;-4.40;96.40;;;;;;5041963;28;20079;-67
2022/01/26 05:10:53;;;;;;;34.88;16.70;;;-4.40;96.50;;;;;;5050989;28;20032;-67
2022/01/26 05:13:18;;;;;;;38.53;20.73;;;-4.60;96.80;;;;;;5046279;28;20370;-68
2022/01/26 05:15:44;;;;;;;105.75;44.28;;;-4.70;96.80;;;;;;5044226;28;20025;-68
2022/01/26 05:18:11;;;;;;;91.35;37.97;;;-4.70;96.60;;;;;;5043482;28;20481;-68
2022/01/26 05:20:36;;;;;;;50.20;23.60;;;-4.80;96.30;;;;;;5050469;28;20024;-68
2022/01/26 05:23:02;;;;;;;46.17;22.27;;;-4.80;96.40;;;;;;5055390;28;20564;-67
2022/01/26 05:25:28;;;;;;;40.00;18.70;;;-4.90;96.70;;;;;;5040974;28;20391;-67
2022/01/26 05:27:54;;;;;;;36.78;19.30;;;-5.00;96.80;;;;;;5039104;28;20341;-67
2022/01/26 05:30:19;;;;;;;42.80;20.95;;;-5.20;96.90;;;;;;5043234;28;20022;-68
2022/01/26 05:32:45;;;;;;;38.15;19.30;;;-5.20;96.60;;;;;;5040231;28;20025;-67
2022/01/26 05:35:11;;;;;;;38.67;18.63;;;-5.20;96.60;;;;;;5043137;28;20034;-67
2022/01/26 05:37:37;;;;;;;37.38;19.17;;;-5.30;96.50;;;;;;5048196;28;20049;-67
2022/01/26 05:40:04;;;;;;;36.70;18.73;;;-5.40;97.30;;;;;;5051522;28;20033;-67
2022/01/26 05:42:30;;;;;;;32.35;16.70;;;-5.40;96.90;;;;;;5051706;28;20071;-68
2022/01/26 05:45:03;;;;;;;33.40;16.10;;;-5.40;96.60;;;;;;5044640;28;20430;-68
2022/01/26 05:47:31;;;;;;;31.25;15.10;;;-5.40;96.90;;;;;;5041690;28;20116;-67
2022/01/26 05:49:57;;;;;;;30.60;14.63;;;-5.50;96.90;;;;;;5044521;28;20063;-67
2022/01/26 05:52:23;;;;;;;30.63;14.15;;;-5.60;97.50;;;;;;5038655;28;20021;-67
2022/01/26 05:54:48;;;;;;;30.73;14.65;;;-5.60;96.60;;;;;;5042609;28;20415;-67
2022/01/26 05:57:14;;;;;;;43.20;21.17;;;-5.60;96.90;;;;;;5042332;28;20466;-68
2022/01/26 05:59:40;;;;;;;42.88;21.35;;;-5.60;97.30;;;;;;5053006;28;20021;-67
2022/01/26 06:02:06;;;;;;;45.63;21.50;;;-5.70;97.20;;;;;;5037573;28;20033;-67
2022/01/26 06:04:31;;;;;;;35.33;18.08;;;-5.80;97.00;;;;;;5044770;28;20099;-67
2022/01/26 06:06:58;;;;;;;42.70;20.83;;;-5.80;96.90;;;;;;5047946;28;20039;-68
2022/01/26 06:09:23;;;;;;;43.45;22.92;;;-5.80;96.70;;;;;;5052529;28;20044;-67
2022/01/26 06:11:49;;;;;;;41.95;20.60;;;-5.70;96.40;;;;;;5042270;28;20415;-67
2022/01/26 06:14:15;;;;;;;43.30;20.92;;;-5.70;96.80;;;;;;5055048;28;20025;-66
2022/01/26 06:16:41;;;;;;;45.08;22.33;;;-5.70;96.80;;;;;;5038950;28;20037;-66
2022/01/26 06:19:06;;;;;;;51.25;27.63;;;-5.80;96.80;;;;;;5049192;28;20036;-67
2022/01/26 06:21:32;;;;;;;51.55;25.33;;;-5.70;96.50;;;;;;5042995;28;20047;-65
2022/01/26 06:23:58;;;;;;;53.85;27.05;;;-5.70;97.10;;;;;;5044944;28;20045;-66
2022/01/26 06:26:24;;;;;;;54.35;26.67;;;-5.80;97.30;;;;;;5045054;28;20022;-66
2022/01/26 06:28:50;;;;;;;62.53;31.42;;;-5.80;96.80;;;;;;5046927;28;20032;-66
2022/01/26 06:31:17;;;;;;;64.22;31.73;;;-5.90;97.40;;;;;;5046394;28;20017;-68
2022/01/26 06:33:45;;;;;;;61.10;32.00;;;-5.90;97.40;;;;;;5050042;28;20029;-68
2022/01/26 06:36:16;;;;;;;56.00;29.60;;;-6.00;97.10;;;;;;5041266;28;20087;-67
2022/01/26 06:38:43;;;;;;;63.53;30.70;;;-5.90;96.90;;;;;;5054137;28;20145;-67
2022/01/26 06:41:13;;;;;;;51.13;28.70;;;-6.00;97.00;;;;;;5038760;28;20037;-67
2022/01/26 06:43:49;;;;;;;60.90;33.13;;;-6.00;96.90;;;;;;5053325;28;20031;-68
2022/01/26 06:46:23;;;;;;;46.92;26.85;;;-6.00;96.50;;;;;;5045856;28;20056;-67
2022/01/26 06:51:27;;;;;;;49.67;28.88;;;-6.00;96.30;;;;;;5038730;28;20413;-67
2022/01/26 06:53:52;;;;;;;63.05;33.63;;;-5.90;96.50;;;;;;5039431;28;20056;-67
2022/01/26 06:56:18;;;;;;;56.97;31.02;;;-5.90;96.50;;;;;;5039678;28;20025;-68
2022/01/26 06:58:43;;;;;;;56.67;32.53;;;-6.00;96.70;;;;;;5042354;28;20078;-69
2022/01/26 07:01:09;;;;;;;59.05;32.92;;;-6.00;96.40;;;;;;5046336;28;20025;-68
2022/01/26 07:03:35;;;;;;;49.97;28.92;;;-6.10;96.60;;;;;;5039607;28;20422;-67
2022/01/26 07:06:00;;;;;;;51.53;29.02;;;-6.10;96.60;;;;;;5040690;28;20033;-67
2022/01/26 07:08:26;;;;;;;52.92;29.92;;;-6.20;96.50;;;;;;5058144;28;20532;-67
2022/01/26 07:10:53;;;;;;;58.38;33.25;;;-6.20;96.30;;;;;;5057232;28;20017;-68
2022/01/26 07:13:19;;;;;;;59.92;31.73;;;-6.10;96.50;;;;;;5058428;28;20449;-67
2022/01/26 07:21:28;;;;;;;;;;;-6.00;95.40;;;;;;5055297;28;20040;-67
2022/01/26 07:23:58;;;;;;;53.30;26.73;;;-5.90;95.80;;;;;;5037825;28;20008;-67
2022/01/26 07:26:28;;;;;;;97.85;45.72;;;-5.90;96.20;;;;;;5039151;28;20025;-67
2022/01/26 07:28:57;;;;;;;88.00;42.97;;;-5.90;96.40;;;;;;5037885;28;20028;-67
2022/01/26 07:31:23;;;;;;;75.18;38.45;;;-5.90;96.00;;;;;;5038947;28;20021;-68
2022/01/26 07:33:54;;;;;;;64.22;32.38;;;-6.00;96.90;;;;;;5035533;28;20025;-68
2022/01/26 07:36:24;;;;;;;57.92;28.30;;;-6.00;97.20;;;;;;5038778;28;20029;-68
2022/01/26 07:38:51;;;;;;;58.50;30.73;;;-6.00;96.70;;;;;;5037772;28;20072;-68
2022/01/26 07:41:18;;;;;;;56.83;31.25;;;-5.90;96.60;;;;;;5040116;28;20029;-68
2022/01/26 07:43:44;;;;;;;68.13;35.20;;;-5.70;96.70;;;;;;5037525;28;20465;-67
2022/01/26 07:46:10;;;;;;;49.85;25.70;;;-5.60;95.60;;;;;;5038774;28;20125;-67
2022/01/26 07:48:36;;;;;;;54.35;29.05;;;-5.40;96.50;;;;;;5038894;28;20411;-67
2022/01/26 07:51:02;;;;;;;49.28;26.42;;;-5.30;95.90;;;;;;5056671;28;20028;-67
2022/01/26 07:53:29;;;;;;;55.83;29.42;;;-5.20;95.90;;;;;;5055963;28;20021;-67
2022/01/26 07:55:56;;;;;;;83.45;42.10;;;-5.00;96.00;;;;;;5037421;28;20342;-67
2022/01/26 07:58:22;;;;;;;79.63;41.72;;;-5.00;96.80;;;;;;5043028;28;20110;-68
2022/01/26 08:00:48;;;;;;;78.78;38.83;;;-5.00;97.60;;;;;;5053872;28;20060;-68
2022/01/26 08:03:14;;;;;;;64.03;31.15;;;-5.10;97.80;;;;;;5056026;28;20027;-68
2022/01/26 08:05:41;;;;;;;69.55;37.05;;;-5.00;97.50;;;;;;5054510;28;20044;-68
2022/01/26 08:08:07;;;;;;;63.47;33.72;;;-4.90;97.20;;;;;;5038339;28;20031;-68
2022/01/26 08:10:33;;;;;;;68.55;34.25;;;-4.70;97.40;;;;;;5039816;28;20017;-68
2022/01/26 08:12:58;;;;;;;66.53;33.55;;;-4.60;97.10;;;;;;5057037;28;20410;-68
2022/01/26 08:15:26;;;;;;;52.45;27.80;;;-4.40;96.70;;;;;;5055690;28;20033;-68
2022/01/26 08:17:52;;;;;;;53.30;26.63;;;-4.20;96.90;;;;;;5035904;28;20481;-68
2022/01/26 08:20:17;;;;;;;50.13;26.25;;;-4.00;97.70;;;;;;5036625;28;20030;-68
2022/01/26 08:22:43;;;;;;;44.53;24.95;;;-3.90;97.60;;;;;;5037753;28;20034;-68
2022/01/26 08:25:10;;;;;;;61.95;30.20;;;-3.80;97.40;;;;;;5036730;28;20083;-68
2022/01/26 08:27:47;;;;;;;56.90;30.98;;;-3.60;97.80;;;;;;5047662;28;20414;-68
2022/01/26 08:30:16;;;;;;;47.72;25.67;;;-3.50;98.00;;;;;;5056096;28;20128;-68
2022/01/26 08:32:43;;;;;;;50.55;26.15;;;-3.30;98.00;;;;;;5043665;28;20034;-67
2022/01/26 08:35:09;;;;;;;90.25;41.90;;;-3.20;98.00;;;;;;5037764;28;20026;-67
2022/01/26 08:37:34;;;;;;;84.03;42.13;;;-3.00;98.00;;;;;;5036777;28;20041;-68
2022/01/26 08:40:00;;;;;;;62.55;34.35;;;-2.90;98.00;;;;;;5037624;28;20032;-67
2022/01/26 08:42:26;;;;;;;56.35;31.23;;;-2.70;98.00;;;;;;5036513;28;20036;-68
2022/01/26 08:44:52;;;;;;;46.90;27.05;;;-2.30;98.00;;;;;;5040953;28;20051;-68
2022/01/26 08:47:18;;;;;;;39.08;23.15;;;-1.60;98.00;;;;;;5051524;28;20036;-68
2022/01/26 08:49:44;;;;;;;33.00;20.90;;;-0.80;98.00;;;;;;5052929;28;20021;-68
2022/01/26 08:52:09;;;;;;;33.70;20.45;;;-0.20;98.00;;;;;;5036418;28;20017;-68
2022/01/26 08:54:35;;;;;;;34.42;20.92;;;0.70;98.00;;;;;;5037535;28;20402;-69
2022/01/26 08:57:01;;;;;;;35.67;21.48;;;1.20;98.00;;;;;;5049993;28;20052;-69
2022/01/26 08:59:26;;;;;;;34.70;20.83;;;1.90;98.00;;;;;;5052162;28;20090;-69
2022/01/26 09:01:55;;;;;;;30.33;18.48;;;2.10;94.00;;;;;;5040888;28;20061;-68
2022/01/26 09:04:21;;;;;;;27.27;17.15;;;1.90;92.80;;;;;;5037791;28;20112;-68
2022/01/26 09:06:55;;;;;;;30.15;19.08;;;1.70;91.20;;;;;;5036726;28;20104;-69
2022/01/26 09:09:23;;;;;;;31.63;19.27;;;1.60;92.60;;;;;;5036092;28;20029;-68
2022/01/26 09:11:50;;;;;;;35.42;19.75;;;1.60;92.10;;;;;;5044940;28;20059;-68
2022/01/26 09:14:22;;;;;;;31.15;18.98;;;1.70;92.60;;;;;;5056079;28;20425;-68
2022/01/26 09:16:52;;;;;;;33.50;20.25;;;2.00;92.50;;;;;;5053070;28;20044;-67
2022/01/26 09:19:31;;;;;;;32.92;20.45;;;2.10;92.00;;;;;;5054142;28;20075;-67
2022/01/26 09:22:19;;;;;;;31.55;20.42;;;2.00;91.00;;;;;;5045593;28;20096;-66
2022/01/26 09:24:47;;;;;;;33.80;19.02;;;1.60;92.00;;;;;;5038122;28;20095;-66
2022/01/26 09:27:16;;;;;;;31.15;18.67;;;1.10;92.60;;;;;;5040315;28;20098;-69
2022/01/26 09:29:43;;;;;;;31.42;19.98;;;1.20;94.50;;;;;;5055966;28;20017;-69
2022/01/26 09:32:11;;;;;;;31.55;19.27;;;1.20;94.30;;;;;;5040373;28;20030;-69
2022/01/26 09:34:37;;;;;;;31.27;18.42;;;1.70;94.70;;;;;;5035845;28;20380;-69
2022/01/26 09:37:09;;;;;;;31.80;19.20;;;2.20;92.80;;;;;;5036908;28;20025;-69
2022/01/26 09:39:39;;;;;;;33.88;19.13;;;3.00;92.40;;;;;;5034663;28;20025;-69
2022/01/26 09:42:05;;;;;;;33.60;22.33;;;4.00;89.40;;;;;;5048096;28;20103;-69
2022/01/26 09:44:31;;;;;;;36.05;21.52;;;4.30;85.90;;;;;;5059781;28;20029;-68
2022/01/26 09:46:57;;;;;;;46.42;30.52;;;4.40;83.90;;;;;;5050549;28;20368;-68
2022/01/26 09:49:29;;;;;;;44.85;26.05;;;3.80;84.80;;;;;;5059892;28;20028;-68
2022/01/26 09:52:14;;;;;;;38.50;23.65;;;3.10;87.90;;;;;;5049169;28;20038;-68
2022/01/26 09:54:43;;;;;;;35.58;22.00;;;2.50;90.10;;;;;;5039674;28;20105;-68
2022/01/26 09:57:09;;;;;;;35.80;21.58;;;2.40;90.30;;;;;;5054254;28;20315;-68
2022/01/26 09:59:35;;;;;;;35.40;21.02;;;2.90;90.20;;;;;;5057649;28;20027;-69
2022/01/26 10:02:01;;;;;;;30.25;19.23;;;3.20;89.60;;;;;;5040495;28;20468;-69
2022/01/26 10:04:37;;;;;;;33.50;21.48;;;3.90;88.30;;;;;;5040559;28;20037;-69
2022/01/26 10:07:18;;;;;;;33.08;21.30;;;4.80;85.10;;;;;;5039289;28;20017;-69
2022/01/26 10:10:00;;;;;;;29.98;19.48;;;5.00;84.00;;;;;;5048368;28;20028;-68
2022/01/26 10:18:15;;;;;;;35.08;21.73;;;6.50;79.30;;;;;;5036876;28;20421;-70
2022/01/26 10:21:08;;;;;;;35.03;22.10;;;6.70;79.70;;;;;;5040271;28;20025;-70
2022/01/26 10:23:42;;;;;;;28.88;17.95;;;7.60;78.20;;;;;;5042662;28;20044;-70
2022/01/26 10:26:13;;;;;;;33.60;20.73;;;8.10;75.90;;;;;;5057331;28;20162;-70
2022/01/26 10:28:44;;;;;;;29.38;19.10;;;8.30;76.30;;;;;;5054514;28;20425;-69
2022/01/26 10:31:22;;;;;;;26.67;17.25;;;9.30;72.30;;;;;;5049993;28;20064;-69
2022/01/26 10:34:07;;;;;;;23.73;16.00;;;9.30;70.50;;;;;;5057128;28;20029;-70
2022/01/26 10:36:36;;;;;;;24.27;15.20;;;9.40;70.70;;;;;;5043152;28;20033;-70
2022/01/26 10:39:41;;;;;;;25.08;16.00;;;9.20;71.10;;;;;;5038788;28;20317;-69
2022/01/26 10:42:06;;;;;;;27.33;17.83;;;8.60;70.90;;;;;;5038564;28;20121;-69
2022/01/26 10:44:45;;;;;;;26.35;16.75;;;8.10;72.50;;;;;;5039852;28;20032;-69
2022/01/26 10:47:24;;;;;;;28.25;17.83;;;7.80;72.60;;;;;;5044961;28;20021;-70
2022/01/26 10:50:18;;;;;;;33.75;19.63;;;7.30;74.00;;;;;;5057514;28;20025;-69
2022/01/26 10:52:54;;;;;;;32.85;21.00;;;7.50;74.60;;;;;;5055246;28;20025;-70
2022/01/26 10:55:20;;;;;;;28.63;17.38;;;7.50;75.10;;;;;;5047916;28;20022;-69
2022/01/26 10:57:46;;;;;;;30.30;18.08;;;7.70;73.30;;;;;;5039675;28;20318;-70
2022/01/26 11:00:12;;;;;;;27.67;17.88;;;7.80;73.80;;;;;;5042787;28;20017;-69
2022/01/26 11:02:40;;;;;;;26.48;16.00;;;8.10;72.90;;;;;;5044877;28;20037;-70
2022/01/26 11:05:06;;;;;;;25.90;17.05;;;8.00;73.10;;;;;;5038469;28;20148;-71
2022/01/26 11:07:41;;;;;;;27.60;18.60;;;8.00;72.80;;;;;;5038497;28;20025;-70
2022/01/26 11:10:08;;;;;;;25.08;16.55;;;8.30;72.00;;;;;;5039499;28;20030;-69
2022/01/26 11:12:37;;;;;;;28.08;17.45;;;8.50;71.30;;;;;;5038216;28;20297;-69
2022/01/26 11:15:10;;;;;;;23.77;16.10;;;8.40;71.00;;;;;;5042948;28;20025;-69
2022/01/26 11:17:46;;;;;;;24.17;15.00;;;8.80;71.10;;;;;;5037859;28;20025;-71
2022/01/26 11:20:20;;;;;;;22.80;15.20;;;9.90;68.60;;;;;;5047527;28;20021;-69
2022/01/26 11:22:54;;;;;;;27.25;16.98;;;10.10;67.50;;;;;;5044767;28;20104;-69
2022/01/26 11:25:24;;;;;;;26.08;17.55;;;9.30;68.60;;;;;;5049095;28;20045;-68
2022/01/26 11:27:51;;;;;;;27.77;17.60;;;8.40;69.90;;;;;;5054868;28;20029;-69
2022/01/26 11:30:32;;;;;;;28.50;17.70;;;7.80;72.10;;;;;;5043533;28;20071;-69
2022/01/26 11:33:04;;;;;;;30.48;18.48;;;7.70;73.00;;;;;;5043524;28;20111;-69
2022/01/26 11:35:34;;;;;;;29.63;17.90;;;7.80;72.70;;;;;;5043835;28;20044;-69
2022/01/26 11:38:39;;;;;;;30.63;18.50;;;7.80;72.80;;;;;;5041591;28;20112;-70
2022/01/26 11:47:11;;;;;;;29.27;18.83;;;7.40;75.80;;;;;;5044615;28;20774;-69
2022/01/26 11:49:39;;;;;;;29.50;18.25;;;8.00;74.40;;;;;;5059034;28;20017;-69
2022/01/26 11:52:06;;;;;;;29.23;18.48;;;8.30;73.10;;;;;;5055628;28;20026;-70
2022/01/26 11:54:48;;;;;;;27.48;16.70;;;8.60;73.20;;;;;;5049240;28;20422;-70
2022/01/26 11:57:16;;;;;;;34.40;21.15;;;8.90;71.70;;;;;;5041586;28;20040;-70
2022/01/26 11:59:49;;;;;;;31.23;19.67;;;8.80;72.30;;;;;;5057148;28;20067;-70
2022/01/26 12:02:37;;;;;;;31.00;21.50;;;8.30;74.40;;;;;;5048217;28;20033;-70
2022/01/26 12:05:06;;;;;;;29.40;20.13;;;7.70;75.80;;;;;;5036245;28;20028;-69
2022/01/26 12:07:32;;;;;;;37.53;23.55;;;7.30;77.90;;;;;;5037149;28;20029;-69
2022/01/26 12:10:03;;;;;;;36.63;23.88;;;6.80;79.20;;;;;;5037216;28;20025;-69
2022/01/26 12:12:28;;;;;;;40.15;24.92;;;6.70;80.10;;;;;;5049583;28;20037;-73
2022/01/26 12:15:15;;;;;;;44.65;27.70;;;6.60;80.70;;;;;;5056906;28;20073;-69
2022/01/26 12:17:58;;;;;;;36.75;23.77;;;6.40;80.80;;;;;;5054361;28;20031;-69
2022/01/26 12:37:21;;;;;;;43.05;27.33;;;6.30;80.40;;;;;;5037494;28;20034;-68
2022/01/26 12:45:15;;;;;;;45.40;27.33;;;4.60;85.80;;;;;;5053434;28;20166;-69
2022/01/26 12:47:42;;;;;;;44.58;28.15;;;4.40;86.70;;;;;;5066253;28;20025;-69
2022/01/26 12:50:08;;;;;;;45.05;29.40;;;4.20;87.80;;;;;;5055566;28;20021;-68
2022/01/26 12:52:35;;;;;;;46.33;28.65;;;4.30;87.70;;;;;;5038229;28;20021;-68
2022/01/26 12:55:06;;;;;;;47.28;29.25;;;4.30;88.20;;;;;;5053206;28;20104;-68
2022/01/26 12:57:45;;;;;;;47.42;28.60;;;4.50;88.40;;;;;;5041097;28;20055;-68
2022/01/26 13:00:14;;;;;;;47.90;29.23;;;4.10;88.10;;;;;;5038752;28;20017;-67
2022/01/26 13:02:43;;;;;;;47.70;29.10;;;3.80;89.50;;;;;;5035101;28;20021;-67
2022/01/26 13:05:10;;;;;;;52.45;31.77;;;3.50;90.80;;;;;;5036072;28;20014;-68
2022/01/26 13:07:37;;;;;;;55.65;32.17;;;3.00;91.90;;;;;;5036278;28;20025;-70
2022/01/26 13:10:13;;;;;;;52.42;31.05;;;2.50;93.00;;;;;;5035122;28;20021;-70
2022/01/26 13:12:41;;;;;;;50.78;31.00;;;1.90;94.70;;;;;;5035184;28;20414;-70
2022/01/26 13:17:45;;;;;;;54.45;32.00;;;2.10;96.10;;;;;;5034421;28;20103;-69
2022/01/26 13:47:38;;;;;;;62.33;34.35;;;1.20;98.00;;;;;;5034714;28;20067;-69
2022/01/26 13:58:05;;;;;;;89.07;45.30;;;-0.10;98.00;;;;;;5054058;28;19909;-69
2022/01/26 14:00:38;;;;;;;76.05;42.33;;;-0.50;98.00;;;;;;5055727;28;20052;-70
2022/01/26 14:03:06;;;;;;;79.72;40.70;;;-0.80;98.00;;;;;;5054236;28;20033;-70
2022/01/26 14:05:32;;;;;;;79.00;40.20;;;-0.90;98.00;;;;;;5055628;28;20462;-70
2022/01/26 14:07:57;;;;;;;86.90;43.78;;;-1.00;98.00;;;;;;5055503;28;20036;-71
2022/01/26 14:10:23;;;;;;;72.85;38.15;;;-1.00;98.00;;;;;;5055133;28;20029;-70
2022/01/26 14:12:50;;;;;;;73.32;39.50;;;-0.80;98.00;;;;;;5055662;28;20049;-70
2022/01/26 14:15:23;;;;;;;81.35;41.78;;;-0.80;98.00;;;;;;5055418;28;20021;-69
2022/01/26 14:20:40;;;;;;;92.10;47.40;;;-0.80;98.00;;;;;;5055356;28;20364;-71
2022/01/26 14:25:30;;;;;;;93.93;43.92;;;-1.00;98.00;;;;;;5052555;28;20077;-70
2022/01/26 14:28:02;;;;;;;86.43;43.22;;;-1.10;98.00;;;;;;5035640;28;20029;-70
2022/01/26 14:33:12;;;;;;;86.45;42.47;;;-1.20;98.00;;;;;;5037933;28;20090;-70
2022/01/26 15:08:44;;;;;;;88.85;45.30;;;-1.30;98.00;;;;;;5038716;28;20099;-71
2022/01/26 15:35:39;;;;;;;;;;;-1.10;98.00;;;;;;5038627;28;20032;-71
2022/01/26 15:43:35;;;;;;;94.07;41.70;;;-1.40;98.00;;;;;;5037688;28;20310;-71
2022/01/26 15:51:44;;;;;;;81.95;37.30;;;-1.40;97.70;;;;;;5038685;28;20030;-70
2022/01/26 16:04:17;;;;;;;;;;;-1.30;97.90;;;;;;5058164;28;20483;-70
2022/01/26 16:07:48;;;;;;;82.20;39.28;;;-1.30;98.00;;;;;;5057258;28;20036;-71
2022/01/26 16:16:33;;;;;;;80.63;35.72;;;-1.30;98.00;;;;;;5056756;28;20373;-70
2022/01/26 16:21:19;;;;;;;87.78;40.35;;;-1.30;98.00;;;;;;5057189;28;20455;-70
2022/01/26 16:37:45;;;;;;;78.90;35.90;;;-1.40;98.00;;;;;;5046286;28;20078;-71
2022/01/26 18:13:05;;;;;;;87.45;38.90;;;-1.80;96.50;;;;;;5050796;28;20028;-69
2022/01/26 18:13:11;;;;;;;87.00;37.58;;;-1.80;96.30;;;;;;5057004;28;20325;-70
2022/01/26 18:15:51;;;;;;;;;;;-1.80;96.30;;;;;;5066455;28;20078;-70
2022/01/26 18:50:55;;;;;;;77.05;34.65;;;-1.70;97.00;;;;;;5040044;28;19916;-69
2022/01/26 18:53:20;;;;;;;81.85;34.40;;;-1.70;96.60;;;;;;5041279;28;20033;-69
2022/01/26 18:55:46;;;;;;;101.97;37.58;;;-1.70;97.30;;;;;;5040669;28;20064;-71
2022/01/26 18:58:15;;;;;;;83.30;35.03;;;-1.80;97.10;;;;;;5050130;28;20121;-70
2022/01/26 19:00:44;;;;;;;79.03;35.13;;;-1.80;96.80;;;;;;5042075;28;20464;-70
2022/01/26 19:03:11;;;;;;;79.82;34.30;;;-1.90;96.60;;;;;;5047334;28;20067;-71
2022/01/26 19:05:37;;;;;;;101.82;36.85;;;-1.90;96.70;;;;;;5039391;28;20036;-71
2022/01/26 19:08:03;;;;;;;116.75;42.97;;;-1.90;96.90;;;;;;5049445;28;20025;-69
2022/01/26 19:10:28;;;;;;;79.68;34.67;;;-1.90;96.60;;;;;;5038386;28;20025;-70
2022/01/26 19:12:54;;;;;;;81.57;35.35;;;-1.80;96.10;;;;;;5047280;28;20024;-70